createdAt,value
2023-05-25T00:02:06.325Z,17.07
2023-05-25T00:04:35.476Z,16.20
2023-05-25T00:07:04.084Z,16.23
2023-05-25T00:09:32.066Z,18.00
2023-05-25T00:12:00.930Z,15.37
2023-05-25T00:14:31.010Z,14.20
2023-05-25T00:16:59.226Z,17.03
2023-05-25T00:19:27.232Z,15.37
2023-05-25T00:21:55.192Z,16.73
2023-05-25T00:24:23.269Z,17.13
2023-05-25T00:26:51.270Z,16.80
2023-05-25T00:29:19.297Z,19.67
2023-05-25T00:31:49.859Z,19.67
2023-05-25T00:34:18.058Z,20.50
2023-05-25T00:36:48.387Z,19.23
2023-05-25T00:39:16.750Z,19.73
2023-05-25T00:41:46.280Z,20.23
2023-05-25T00:44:15.572Z,18.43
2023-05-25T00:46:48.397Z,19.43
2023-05-25T00:49:19.810Z,19.40
2023-05-25T00:51:48.602Z,15.17
2023-05-25T00:54:17.106Z,18.20
2023-05-25T00:56:48.141Z,18.10
2023-05-25T00:59:19.377Z,15.57
2023-05-25T01:01:49.727Z,18.80
2023-05-25T01:04:20.083Z,17.80
2023-05-25T01:06:49.996Z,19.30
2023-05-25T01:09:20.581Z,16.93
2023-05-25T01:11:52.412Z,19.80
2023-05-25T01:14:22.327Z,17.50
2023-05-25T01:16:51.811Z,22.73
2023-05-25T01:19:22.157Z,18.77
2023-05-25T01:21:57.222Z,21.13
2023-05-25T01:24:32.557Z,21.23
2023-05-25T01:27:05.393Z,19.30
2023-05-25T01:29:35.686Z,18.10
2023-05-25T01:32:05.425Z,18.00
2023-05-25T01:34:34.174Z,15.87
2023-05-25T01:37:03.681Z,17.93
2023-05-25T01:39:31.657Z,21.67
2023-05-25T01:41:59.676Z,19.03
2023-05-25T01:44:27.850Z,22.07
2023-05-25T01:47:03.631Z,18.60
2023-05-25T01:49:41.694Z,21.37
2023-05-25T01:52:19.486Z,18.70
2023-05-25T01:54:52.822Z,18.97
2023-05-25T01:57:22.468Z,17.07
2023-05-25T01:59:55.760Z,17.37
2023-05-25T02:02:24.835Z,16.77
2023-05-25T02:04:55.193Z,17.30
2023-05-25T02:07:24.863Z,15.03
2023-05-25T02:09:52.910Z,18.80
2023-05-25T02:12:21.095Z,15.40
2023-05-25T02:14:49.091Z,15.73
2023-05-25T02:17:18.056Z,14.67
2023-05-25T02:19:46.646Z,15.93
2023-05-25T02:22:14.665Z,18.27
2023-05-25T02:24:44.039Z,15.17
2023-05-25T02:27:12.892Z,15.27
2023-05-25T02:29:41.170Z,17.43
2023-05-25T02:32:09.155Z,14.80
2023-05-25T02:34:37.162Z,15.17
2023-05-25T02:37:05.463Z,14.27
2023-05-25T02:39:33.433Z,14.90
2023-05-25T02:42:02.839Z,18.13
2023-05-25T02:44:32.197Z,16.33
2023-05-25T02:47:00.268Z,16.40
2023-05-25T02:49:29.904Z,14.13
2023-05-25T02:51:57.910Z,15.17
2023-05-25T02:54:25.889Z,15.77
2023-05-25T02:56:53.934Z,16.07
2023-05-25T02:59:24.915Z,16.67
2023-05-25T03:01:52.948Z,15.60
2023-05-25T03:04:21.905Z,15.00
2023-05-25T03:06:49.902Z,14.83
2023-05-25T03:09:17.954Z,15.57
2023-05-25T03:11:45.936Z,17.87
2023-05-25T03:14:14.282Z,17.47
2023-05-25T03:16:43.738Z,23.10
2023-05-25T03:19:12.081Z,21.90
2023-05-25T03:21:40.237Z,23.30
2023-05-25T03:24:08.596Z,23.40
2023-05-25T03:26:36.757Z,22.77
2023-05-25T03:29:06.831Z,24.27
2023-05-25T03:31:35.124Z,24.83
2023-05-25T03:34:06.275Z,25.17
2023-05-25T03:36:34.361Z,24.13
2023-05-25T03:39:02.407Z,24.63
2023-05-25T03:41:30.491Z,23.37
2023-05-25T03:43:58.552Z,25.43
2023-05-25T03:46:26.636Z,25.43
2023-05-25T03:48:54.692Z,27.57
2023-05-25T03:51:24.136Z,26.37
2023-05-25T03:53:52.178Z,26.80
2023-05-25T03:56:20.251Z,28.80
2023-05-25T03:58:48.469Z,32.10
2023-05-25T04:01:16.753Z,26.97
2023-05-25T04:03:44.945Z,30.43
2023-05-25T04:06:13.130Z,31.60
2023-05-25T04:08:42.525Z,28.50
2023-05-25T04:11:10.574Z,27.83
2023-05-25T04:13:40.369Z,31.43
2023-05-25T04:16:10.110Z,30.03
2023-05-25T04:18:38.251Z,32.00
2023-05-25T04:21:06.417Z,30.83
2023-05-25T04:23:37.405Z,31.47
2023-05-25T04:26:10.222Z,32.40
2023-05-25T04:28:40.738Z,31.63
2023-05-25T04:31:09.340Z,34.50
2023-05-25T04:33:38.824Z,33.77
2023-05-25T04:36:08.839Z,32.93
2023-05-25T04:38:37.458Z,33.07
2023-05-25T04:41:06.927Z,36.43
2023-05-25T04:43:34.986Z,34.47
2023-05-25T04:46:04.994Z,32.57
2023-05-25T04:48:34.301Z,30.70
2023-05-25T04:51:03.060Z,34.63
2023-05-25T04:53:32.325Z,28.20
2023-05-25T04:56:00.507Z,32.67
2023-05-25T04:58:30.766Z,33.13
2023-05-25T05:00:58.806Z,36.53
2023-05-25T05:03:26.953Z,32.43
2023-05-25T05:05:55.060Z,32.00
2023-05-25T05:08:24.399Z,32.73
2023-05-25T05:10:52.459Z,35.13
2023-05-25T05:13:20.505Z,35.87
2023-05-25T05:15:49.870Z,30.10
2023-05-25T05:18:17.930Z,34.63
2023-05-25T05:20:46.193Z,33.87
2023-05-25T05:23:17.110Z,31.77
2023-05-25T05:25:46.374Z,33.97
2023-05-25T05:28:14.646Z,36.33
2023-05-25T05:30:44.158Z,38.90
2023-05-25T05:33:13.598Z,34.37
2023-05-25T05:35:41.716Z,35.47
2023-05-25T05:38:09.883Z,33.77
2023-05-25T05:40:38.116Z,38.33
2023-05-25T05:43:06.848Z,36.07
2023-05-25T05:45:34.897Z,38.80
2023-05-25T05:48:04.737Z,35.03
2023-05-25T05:50:34.249Z,34.53
2023-05-25T05:53:04.396Z,36.23
2023-05-25T05:55:32.416Z,32.63
2023-05-25T05:58:00.642Z,35.27
2023-05-25T06:00:28.691Z,33.57
2023-05-25T06:02:56.922Z,38.17
2023-05-25T06:05:25.194Z,39.60
2023-05-25T06:07:54.687Z,39.57
2023-05-25T06:10:22.849Z,45.67
2023-05-25T06:12:53.330Z,42.83
2023-05-25T06:15:21.351Z,43.20
2023-05-25T06:17:49.484Z,39.33
2023-05-25T06:20:17.574Z,32.23
2023-05-25T06:22:45.818Z,29.87
2023-05-25T06:25:15.743Z,27.00
2023-05-25T06:27:43.876Z,24.57
2023-05-25T06:30:15.350Z,25.60
2023-05-25T06:32:46.399Z,24.70
2023-05-25T06:35:19.866Z,20.93
2023-05-25T06:37:49.300Z,18.93
2023-05-25T06:40:18.841Z,22.47
2023-05-25T06:42:47.005Z,20.10
2023-05-25T06:45:16.788Z,20.40
2023-05-25T06:47:45.071Z,17.87
2023-05-25T06:50:13.756Z,17.43
2023-05-25T06:52:41.800Z,17.27
2023-05-25T06:55:10.051Z,15.90
2023-05-25T06:57:39.453Z,17.90
2023-05-25T07:00:09.498Z,16.90
2023-05-25T07:02:37.592Z,16.23
2023-05-25T07:05:06.801Z,14.57
2023-05-25T07:07:34.830Z,14.47
2023-05-25T07:10:05.857Z,15.57
2023-05-25T07:12:33.966Z,13.73
2023-05-25T07:15:04.658Z,14.90
2023-05-25T07:17:32.803Z,18.60
2023-05-25T07:20:00.891Z,19.60
2023-05-25T07:22:28.937Z,18.87
2023-05-25T07:24:56.996Z,17.60
2023-05-25T07:27:26.052Z,19.43
2023-05-25T07:29:54.113Z,19.27
2023-05-25T07:32:23.762Z,17.67
2023-05-25T07:34:53.930Z,15.03
2023-05-25T07:37:22.027Z,15.30
2023-05-25T07:39:50.611Z,15.57
2023-05-25T07:42:20.898Z,17.77
2023-05-25T07:44:49.319Z,16.27
2023-05-25T07:47:17.387Z,16.80
2023-05-25T07:49:48.293Z,18.30
2023-05-25T07:52:16.744Z,18.43
2023-05-25T07:54:47.475Z,17.90
2023-05-25T07:57:15.534Z,19.33
2023-05-25T07:59:46.024Z,18.70
2023-05-25T08:02:16.845Z,18.13
2023-05-25T08:04:46.604Z,18.33
2023-05-25T08:07:16.162Z,20.47
2023-05-25T08:09:44.236Z,20.17
2023-05-25T08:12:27.116Z,21.17
2023-05-25T08:15:00.458Z,22.47
2023-05-25T08:17:28.534Z,21.33
2023-05-25T08:19:57.762Z,20.00
2023-05-25T08:22:27.514Z,19.67
2023-05-25T08:24:55.614Z,19.97
2023-05-25T08:27:23.713Z,22.90
2023-05-25T08:29:51.829Z,25.17
2023-05-25T08:32:19.872Z,21.80
2023-05-25T08:34:48.023Z,22.87
2023-05-25T08:37:16.584Z,21.87
2023-05-25T08:39:46.029Z,23.50
2023-05-25T08:42:14.425Z,23.60
2023-05-25T08:44:42.781Z,27.20
2023-05-25T08:47:13.430Z,27.67
2023-05-25T08:49:41.829Z,26.57
2023-05-25T08:52:14.570Z,24.97
2023-05-25T08:54:46.797Z,24.03
2023-05-25T08:57:18.258Z,26.63
2023-05-25T08:59:51.442Z,25.33
2023-05-25T09:02:27.583Z,26.00
2023-05-25T09:04:56.655Z,24.83
2023-05-25T09:07:25.718Z,25.43
2023-05-25T09:09:56.214Z,23.73
2023-05-25T09:12:24.636Z,24.37
2023-05-25T09:14:55.204Z,24.97
2023-05-25T09:17:24.015Z,26.73
2023-05-25T09:19:52.846Z,25.17
2023-05-25T09:22:21.074Z,24.87
2023-05-25T09:24:49.722Z,25.07
2023-05-25T09:27:21.418Z,25.10
2023-05-25T09:29:50.318Z,26.37
2023-05-25T09:32:19.383Z,24.83
2023-05-25T09:34:48.302Z,27.03
2023-05-25T09:37:19.426Z,23.10
2023-05-25T09:39:48.760Z,26.77
2023-05-25T09:42:18.654Z,27.00
2023-05-25T09:44:46.752Z,24.67
2023-05-25T09:47:16.930Z,24.80
2023-05-25T09:49:47.638Z,24.63
2023-05-25T09:52:16.599Z,24.23
2023-05-25T09:54:46.447Z,25.00
2023-05-25T09:57:20.725Z,25.93
2023-05-25T09:59:49.012Z,26.97
2023-05-25T10:02:17.018Z,28.67
2023-05-25T10:04:46.511Z,26.47
2023-05-25T10:07:17.774Z,27.67
2023-05-25T10:09:47.627Z,26.90
2023-05-25T10:12:21.308Z,25.43
2023-05-25T10:14:52.257Z,26.17
2023-05-25T10:17:24.459Z,26.70
2023-05-25T10:19:56.186Z,26.10
2023-05-25T10:22:31.337Z,28.50
2023-05-25T10:25:05.208Z,25.70
2023-05-25T10:27:41.037Z,25.47
2023-05-25T10:30:11.162Z,26.40
2023-05-25T10:32:39.387Z,25.57
2023-05-25T10:35:08.446Z,24.67
2023-05-25T10:37:36.909Z,23.63
2023-05-25T10:40:08.607Z,23.27
2023-05-25T10:42:39.140Z,22.07
2023-05-25T10:45:09.742Z,20.93
2023-05-25T10:47:42.743Z,21.83
2023-05-25T10:50:21.102Z,21.87
2023-05-25T10:52:59.735Z,22.17
2023-05-25T10:55:31.970Z,22.00
2023-05-25T10:58:12.444Z,20.57
2023-05-25T11:00:41.680Z,20.07
2023-05-25T11:03:10.382Z,21.20
2023-05-25T11:05:39.862Z,21.37
2023-05-25T11:08:09.952Z,19.73
2023-05-25T11:10:59.730Z,20.47
2023-05-25T11:13:41.156Z,19.20
2023-05-25T11:16:18.062Z,20.17
2023-05-25T11:18:47.419Z,20.73
2023-05-25T11:21:18.766Z,19.67
2023-05-25T11:23:57.670Z,19.00
2023-05-25T11:26:27.322Z,19.13
2023-05-25T11:28:59.070Z,20.53
2023-05-25T11:31:38.344Z,19.80
2023-05-25T11:34:09.416Z,19.20
2023-05-25T11:36:37.844Z,19.43
2023-05-25T11:39:16.958Z,19.80
2023-05-25T11:41:51.456Z,18.67
2023-05-25T11:44:29.453Z,19.47
2023-05-25T11:46:58.454Z,19.30
2023-05-25T11:49:26.702Z,19.67
2023-05-25T11:51:57.774Z,20.80
2023-05-25T11:54:27.396Z,20.57
2023-05-25T11:56:58.969Z,19.87
2023-05-25T11:59:30.741Z,21.90
2023-05-25T12:02:01.560Z,22.47
2023-05-25T12:04:30.067Z,21.00
2023-05-25T12:07:05.255Z,22.43
2023-05-25T12:09:36.754Z,21.57
2023-05-25T12:12:06.155Z,22.60
2023-05-25T12:14:41.903Z,22.00
2023-05-25T12:17:10.749Z,23.03
2023-05-25T12:19:39.048Z,26.30
2023-05-25T12:22:07.473Z,22.90
2023-05-25T12:24:35.580Z,25.40
2023-05-25T12:27:05.937Z,24.73
2023-05-25T12:29:46.365Z,23.53
2023-05-25T12:32:17.926Z,23.87
2023-05-25T12:34:46.559Z,21.93
2023-05-25T12:37:21.717Z,20.90
2023-05-25T12:39:50.776Z,22.40
2023-05-25T12:42:19.537Z,21.80
2023-05-25T12:44:55.321Z,22.20
2023-05-25T12:47:25.020Z,23.23
2023-05-25T12:49:54.461Z,23.90
2023-05-25T12:52:38.491Z,23.07
2023-05-25T12:55:25.789Z,22.30
2023-05-25T12:57:54.192Z,21.50
2023-05-25T13:00:25.607Z,21.23
2023-05-25T13:02:54.798Z,22.83
2023-05-25T13:05:24.955Z,22.57
2023-05-25T13:07:57.898Z,20.60
2023-05-25T13:10:26.601Z,20.60
2023-05-25T13:12:57.249Z,21.03
2023-05-25T13:15:27.870Z,21.20
2023-05-25T13:17:58.512Z,20.53
2023-05-25T13:20:28.210Z,21.43
2023-05-25T13:22:56.727Z,27.00
2023-05-25T13:25:27.259Z,22.93
2023-05-25T13:27:58.206Z,22.70
2023-05-25T13:30:28.021Z,27.37
2023-05-25T13:32:56.068Z,25.60
2023-05-25T13:35:37.640Z,27.37
2023-05-25T13:38:06.689Z,29.53
2023-05-25T13:40:37.565Z,28.47
2023-05-25T13:43:06.050Z,28.77
2023-05-25T13:45:35.487Z,31.10
2023-05-25T13:48:04.405Z,27.37
2023-05-25T13:50:32.616Z,29.00
2023-05-25T13:53:02.565Z,28.47
2023-05-25T13:55:30.805Z,26.90
2023-05-25T13:57:58.907Z,30.47
2023-05-25T14:00:27.597Z,27.67
2023-05-25T14:02:57.274Z,26.20
2023-05-25T14:05:25.477Z,27.10
2023-05-25T14:07:55.674Z,27.97
2023-05-25T14:10:24.357Z,25.97
2023-05-25T14:12:52.439Z,25.67
2023-05-25T14:15:20.449Z,26.33
2023-05-25T14:17:48.499Z,24.60
2023-05-25T14:20:25.126Z,23.10
2023-05-25T14:22:53.363Z,22.07
2023-05-25T14:25:21.612Z,21.77
2023-05-25T14:27:49.656Z,21.87
2023-05-25T14:30:17.799Z,20.73
2023-05-25T14:32:45.842Z,19.13
2023-05-25T14:35:13.871Z,19.53
2023-05-25T14:37:43.320Z,19.37
2023-05-25T14:40:13.804Z,18.60
2023-05-25T14:42:41.833Z,19.13
2023-05-25T14:45:12.049Z,17.30
2023-05-25T14:47:41.075Z,17.47
2023-05-25T14:50:09.844Z,16.93
2023-05-25T14:52:37.924Z,16.20
2023-05-25T14:55:10.181Z,16.00
2023-05-25T14:57:38.619Z,16.60
2023-05-25T15:00:07.675Z,15.87
2023-05-25T15:02:36.098Z,15.57
2023-05-25T15:05:04.214Z,14.57
2023-05-25T15:07:32.299Z,14.47
2023-05-25T15:10:00.513Z,15.07
2023-05-25T15:12:30.027Z,14.77
2023-05-25T15:14:58.057Z,15.63
2023-05-25T15:17:26.156Z,17.87
2023-05-25T15:19:54.190Z,18.87
2023-05-25T15:22:22.578Z,18.90
2023-05-25T15:24:51.212Z,18.93
2023-05-25T15:27:19.223Z,17.87
2023-05-25T15:29:48.664Z,16.97
2023-05-25T15:32:17.865Z,16.93
2023-05-25T15:34:46.926Z,15.20
2023-05-25T15:37:15.030Z,15.23
2023-05-25T15:39:44.771Z,15.40
2023-05-25T15:42:12.789Z,15.53
2023-05-25T15:44:41.323Z,15.20
2023-05-25T15:47:10.811Z,15.50
2023-05-25T15:49:38.846Z,16.10
2023-05-25T15:52:07.602Z,13.93
2023-05-25T15:54:35.737Z,13.53
2023-05-25T15:57:03.795Z,13.50
2023-05-25T15:59:34.159Z,12.37
2023-05-25T16:02:02.213Z,14.57
2023-05-25T16:04:31.566Z,15.90
2023-05-25T16:07:00.700Z,14.93
2023-05-25T16:09:30.032Z,14.93
2023-05-25T16:11:58.196Z,16.37
2023-05-25T16:14:26.423Z,16.97
2023-05-25T16:16:54.475Z,14.80
2023-05-25T16:19:22.671Z,14.70
2023-05-25T16:21:52.213Z,15.30
2023-05-25T16:24:20.282Z,16.67
2023-05-25T16:26:48.554Z,14.17
2023-05-25T16:29:16.709Z,14.50
2023-05-25T16:31:44.805Z,13.17
2023-05-25T16:34:12.816Z,14.07
2023-05-25T16:36:40.916Z,13.00
2023-05-25T16:39:14.119Z,13.50
2023-05-25T16:41:42.273Z,13.00
2023-05-25T16:44:11.616Z,19.27
2023-05-25T16:46:39.821Z,20.27
2023-05-25T16:49:08.005Z,22.73
2023-05-25T16:51:37.839Z,24.13
2023-05-25T16:54:06.017Z,25.77
2023-05-25T16:56:35.586Z,25.47
2023-05-25T16:59:06.401Z,25.07
2023-05-25T17:01:34.458Z,26.70
2023-05-25T17:04:02.702Z,27.60
2023-05-25T17:06:31.162Z,25.93
2023-05-25T17:08:59.193Z,24.57
2023-05-25T17:11:28.137Z,24.33
2023-05-25T17:13:57.795Z,25.93
2023-05-25T17:16:26.004Z,24.27
2023-05-25T17:18:57.553Z,23.00
2023-05-25T17:21:25.570Z,24.07
2023-05-25T17:23:53.595Z,23.97
2023-05-25T17:26:22.599Z,23.83
2023-05-25T17:28:50.819Z,24.17
2023-05-25T17:31:22.479Z,24.47
2023-05-25T17:33:50.530Z,25.67
2023-05-25T17:36:18.622Z,26.93
2023-05-25T17:38:46.708Z,26.07
2023-05-25T17:41:14.821Z,28.03
2023-05-25T17:43:42.815Z,26.60
2023-05-25T17:46:10.994Z,27.77
2023-05-25T17:48:40.730Z,25.77
2023-05-25T17:51:08.769Z,25.30
2023-05-25T17:53:37.516Z,24.93
2023-05-25T17:56:05.741Z,24.83
2023-05-25T17:58:33.808Z,25.50
2023-05-25T18:01:02.022Z,26.63
2023-05-25T18:03:30.623Z,27.33
2023-05-25T18:06:00.188Z,27.00
2023-05-25T18:08:28.351Z,28.37
2023-05-25T18:10:56.354Z,28.13
2023-05-25T18:13:24.385Z,26.77
2023-05-25T18:15:52.402Z,28.50
2023-05-25T18:18:23.121Z,29.97
2023-05-25T18:20:51.271Z,28.33
2023-05-25T18:23:22.119Z,29.50
2023-05-25T18:25:50.145Z,29.50
2023-05-25T18:28:18.246Z,28.27
2023-05-25T18:30:46.569Z,29.40
2023-05-25T18:33:17.068Z,27.87
2023-05-25T18:35:47.129Z,28.70
2023-05-25T18:38:15.214Z,27.77
2023-05-25T18:40:46.886Z,28.73
2023-05-25T18:43:14.920Z,27.33
2023-05-25T18:45:43.347Z,28.50
2023-05-25T18:48:11.658Z,27.13
2023-05-25T18:50:41.850Z,29.50
2023-05-25T18:53:10.964Z,27.37
2023-05-25T18:55:39.134Z,26.90
2023-05-25T18:58:08.564Z,27.13
2023-05-25T19:00:36.675Z,27.90
2023-05-25T19:03:06.837Z,27.07
2023-05-25T19:05:37.010Z,28.50
2023-05-25T19:08:07.524Z,27.80
2023-05-25T19:10:35.856Z,27.77
2023-05-25T19:13:05.968Z,27.37
2023-05-25T19:15:35.778Z,28.80
2023-05-25T19:18:04.509Z,26.37
2023-05-25T19:20:33.599Z,27.57
2023-05-25T19:23:02.022Z,27.23
2023-05-25T19:25:30.040Z,26.13
2023-05-25T19:28:00.344Z,27.00
2023-05-25T19:30:28.614Z,26.63
2023-05-25T19:32:58.076Z,26.20
2023-05-25T19:35:26.261Z,26.97
2023-05-25T19:37:57.536Z,28.17
2023-05-25T19:40:26.366Z,27.20
2023-05-25T19:42:54.451Z,27.07
2023-05-25T19:45:25.565Z,26.80
2023-05-25T19:47:55.594Z,28.63
2023-05-25T19:50:28.053Z,27.90
2023-05-25T19:52:56.069Z,27.47
2023-05-25T19:55:24.404Z,30.40
2023-05-25T19:57:52.550Z,29.13
2023-05-25T20:00:26.557Z,30.33
2023-05-25T20:02:55.898Z,29.37
2023-05-25T20:05:25.507Z,29.57
2023-05-25T20:07:53.584Z,30.83
2023-05-25T20:10:21.703Z,31.80
2023-05-25T20:12:49.797Z,33.63
2023-05-25T20:15:17.895Z,31.33
2023-05-25T20:17:46.066Z,32.07
2023-05-25T20:20:14.288Z,32.43
2023-05-25T20:22:44.860Z,31.07
2023-05-25T20:25:15.598Z,33.27
2023-05-25T20:27:43.589Z,31.67
2023-05-25T20:30:15.729Z,30.90
2023-05-25T20:32:44.205Z,35.03
2023-05-25T20:35:12.857Z,30.33
2023-05-25T20:37:41.823Z,33.83
2023-05-25T20:40:11.586Z,30.57
2023-05-25T20:42:39.755Z,30.53
2023-05-25T20:45:08.802Z,32.57
2023-05-25T20:47:36.920Z,33.40
2023-05-25T20:50:05.192Z,32.13
2023-05-25T20:52:33.754Z,32.40
2023-05-25T20:55:01.889Z,32.30
2023-05-25T20:57:31.395Z,32.30
2023-05-25T21:00:00.147Z,31.83
2023-05-25T21:02:28.749Z,34.07
2023-05-25T21:04:58.298Z,32.13
2023-05-25T21:07:26.392Z,31.87
2023-05-25T21:09:56.530Z,33.53
2023-05-25T21:12:24.578Z,31.83
2023-05-25T21:14:55.970Z,32.50
2023-05-25T21:17:24.347Z,34.67
2023-05-25T21:19:52.463Z,31.17
2023-05-25T21:22:20.579Z,31.60
2023-05-25T21:24:49.877Z,33.60
2023-05-25T21:27:18.053Z,33.60
2023-05-25T21:29:46.107Z,34.37
2023-05-25T21:32:15.632Z,34.80
2023-05-25T21:34:46.094Z,33.30
2023-05-25T21:37:14.131Z,32.97
2023-05-25T21:39:42.126Z,31.97
2023-05-25T21:42:11.025Z,34.63
2023-05-25T21:44:39.133Z,33.47
2023-05-25T21:47:07.354Z,32.50
2023-05-25T21:49:36.786Z,32.40
2023-05-25T21:52:05.666Z,32.17
2023-05-25T21:54:33.796Z,34.07
2023-05-25T21:57:01.825Z,32.50
2023-05-25T21:59:29.927Z,34.23
2023-05-25T22:01:58.003Z,35.30
2023-05-25T22:04:26.465Z,35.30
2023-05-25T22:06:58.719Z,34.60
2023-05-25T22:09:26.717Z,35.47
2023-05-25T22:11:54.704Z,36.43
2023-05-25T22:14:22.696Z,34.73
2023-05-25T22:16:50.902Z,35.50
2023-05-25T22:19:19.015Z,38.23
2023-05-25T22:21:47.195Z,37.10
2023-05-25T22:24:16.673Z,37.43
2023-05-25T22:26:44.904Z,38.47
2023-05-25T22:29:13.058Z,36.67
2023-05-25T22:31:41.242Z,36.97
2023-05-25T22:34:09.291Z,38.13
2023-05-25T22:36:37.855Z,37.17
2023-05-25T22:39:05.917Z,37.33
2023-05-25T22:41:35.376Z,39.27
2023-05-25T22:44:03.491Z,37.93
2023-05-25T22:46:31.785Z,38.33
2023-05-25T22:48:59.856Z,36.57
2023-05-25T22:51:28.064Z,37.63
2023-05-25T22:53:56.216Z,37.40
2023-05-25T22:56:26.355Z,37.93
2023-05-25T22:58:55.835Z,35.50
2023-05-25T23:01:23.889Z,36.10
2023-05-25T23:03:52.083Z,37.20
2023-05-25T23:06:20.924Z,36.20
2023-05-25T23:08:48.902Z,36.17
2023-05-25T23:11:17.005Z,36.33
2023-05-25T23:13:45.263Z,36.77
2023-05-25T23:16:15.506Z,36.30
2023-05-25T23:18:43.703Z,35.67
2023-05-25T23:21:12.255Z,38.53
2023-05-25T23:23:40.473Z,36.27
2023-05-25T23:26:08.648Z,36.33
2023-05-25T23:28:36.809Z,38.90
2023-05-25T23:31:05.172Z,37.03
2023-05-25T23:33:34.627Z,37.90
2023-05-25T23:36:02.718Z,37.43
2023-05-25T23:38:31.236Z,36.33
2023-05-25T23:40:59.255Z,37.53
2023-05-25T23:43:27.227Z,37.07
2023-05-25T23:45:55.304Z,38.10
2023-05-25T23:48:23.424Z,37.70
2023-05-25T23:50:52.904Z,36.23
2023-05-25T23:53:20.951Z,36.80
2023-05-25T23:55:49.043Z,37.57
2023-05-25T23:58:17.142Z,37.40
